sensor_id;sensor_type;location;lat;lon;timestamp;temperature;humidity
20546;DHT22;10431;50.228;9.112;2023-07-13T00:00:25;23.70;84.70
20546;DHT22;10431;50.228;9.112;2023-07-13T00:02:51;23.70;84.60
20546;DHT22;10431;50.228;9.112;2023-07-13T00:05:20;23.70;84.80
20546;DHT22;10431;50.228;9.112;2023-07-13T00:07:47;23.60;85.10
20546;DHT22;10431;50.228;9.112;2023-07-13T00:10:14;23.60;85.70
20546;DHT22;10431;50.228;9.112;2023-07-13T00:12:40;23.60;85.90
20546;DHT22;10431;50.228;9.112;2023-07-13T00:15:12;23.60;86.00
20546;DHT22;10431;50.228;9.112;2023-07-13T00:17:39;23.50;86.00
20546;DHT22;10431;50.228;9.112;2023-07-13T00:20:05;23.50;86.10
20546;DHT22;10431;50.228;9.112;2023-07-13T00:22:32;23.50;86.10
20546;DHT22;10431;50.228;9.112;2023-07-13T00:24:58;23.50;86.20
20546;DHT22;10431;50.228;9.112;2023-07-13T00:27:24;23.50;86.40
20546;DHT22;10431;50.228;9.112;2023-07-13T00:29:52;23.40;86.40
20546;DHT22;10431;50.228;9.112;2023-07-13T00:32:18;23.40;86.50
20546;DHT22;10431;50.228;9.112;2023-07-13T00:34:44;23.40;86.40
20546;DHT22;10431;50.228;9.112;2023-07-13T00:37:10;23.40;86.40
20546;DHT22;10431;50.228;9.112;2023-07-13T00:39:37;23.40;86.10
20546;DHT22;10431;50.228;9.112;2023-07-13T00:42:03;23.40;85.90
20546;DHT22;10431;50.228;9.112;2023-07-13T00:44:30;23.50;85.80
20546;DHT22;10431;50.228;9.112;2023-07-13T00:46:56;23.50;85.40
20546;DHT22;10431;50.228;9.112;2023-07-13T00:49:24;23.50;85.20
20546;DHT22;10431;50.228;9.112;2023-07-13T00:51:52;23.40;85.10
20546;DHT22;10431;50.228;9.112;2023-07-13T00:54:23;23.40;85.00
20546;DHT22;10431;50.228;9.112;2023-07-13T00:56:50;23.50;84.90
20546;DHT22;10431;50.228;9.112;2023-07-13T00:59:17;23.50;84.90
20546;DHT22;10431;50.228;9.112;2023-07-13T01:01:46;23.40;84.80
20546;DHT22;10431;50.228;9.112;2023-07-13T01:04:12;23.40;84.80
20546;DHT22;10431;50.228;9.112;2023-07-13T01:06:38;23.40;84.80
20546;DHT22;10431;50.228;9.112;2023-07-13T01:09:06;23.40;84.90
20546;DHT22;10431;50.228;9.112;2023-07-13T01:11:33;23.30;84.90
20546;DHT22;10431;50.228;9.112;2023-07-13T01:14:00;23.30;85.30
20546;DHT22;10431;50.228;9.112;2023-07-13T01:16:28;23.20;85.40
20546;DHT22;10431;50.228;9.112;2023-07-13T01:18:55;23.20;85.40
20546;DHT22;10431;50.228;9.112;2023-07-13T01:21:24;23.20;85.30
20546;DHT22;10431;50.228;9.112;2023-07-13T01:23:51;23.20;85.30
20546;DHT22;10431;50.228;9.112;2023-07-13T01:26:17;23.20;85.20
20546;DHT22;10431;50.228;9.112;2023-07-13T01:28:43;23.20;85.20
20546;DHT22;10431;50.228;9.112;2023-07-13T01:31:09;23.10;85.30
20546;DHT22;10431;50.228;9.112;2023-07-13T01:33:36;23.10;85.50
20546;DHT22;10431;50.228;9.112;2023-07-13T01:36:02;23.00;85.80
20546;DHT22;10431;50.228;9.112;2023-07-13T01:38:28;23.00;85.90
20546;DHT22;10431;50.228;9.112;2023-07-13T01:40:54;23.00;85.90
20546;DHT22;10431;50.228;9.112;2023-07-13T01:43:23;23.00;85.80
20546;DHT22;10431;50.228;9.112;2023-07-13T01:45:49;23.00;85.60
20546;DHT22;10431;50.228;9.112;2023-07-13T01:48:15;23.00;85.50
20546;DHT22;10431;50.228;9.112;2023-07-13T01:50:41;23.00;85.50
20546;DHT22;10431;50.228;9.112;2023-07-13T01:53:07;23.10;85.40
20546;DHT22;10431;50.228;9.112;2023-07-13T01:55:33;23.10;85.40
20546;DHT22;10431;50.228;9.112;2023-07-13T01:58:02;23.10;85.20
20546;DHT22;10431;50.228;9.112;2023-07-13T02:00:28;23.10;85.20
20546;DHT22;10431;50.228;9.112;2023-07-13T02:02:54;23.00;85.30
20546;DHT22;10431;50.228;9.112;2023-07-13T02:05:21;23.00;85.40
20546;DHT22;10431;50.228;9.112;2023-07-13T02:07:47;23.00;85.50
20546;DHT22;10431;50.228;9.112;2023-07-13T02:10:13;22.90;85.60
20546;DHT22;10431;50.228;9.112;2023-07-13T02:12:39;22.90;85.60
20546;DHT22;10431;50.228;9.112;2023-07-13T02:15:05;22.80;85.70
20546;DHT22;10431;50.228;9.112;2023-07-13T02:17:32;22.80;85.90
20546;DHT22;10431;50.228;9.112;2023-07-13T02:19:58;22.70;86.10
20546;DHT22;10431;50.228;9.112;2023-07-13T02:22:24;22.70;86.20
20546;DHT22;10431;50.228;9.112;2023-07-13T02:24:50;22.70;86.40
20546;DHT22;10431;50.228;9.112;2023-07-13T02:27:18;22.70;86.30
20546;DHT22;10431;50.228;9.112;2023-07-13T02:29:44;22.70;86.40
20546;DHT22;10431;50.228;9.112;2023-07-13T02:32:10;22.70;86.40
20546;DHT22;10431;50.228;9.112;2023-07-13T02:34:36;22.70;86.50
20546;DHT22;10431;50.228;9.112;2023-07-13T02:37:04;22.70;86.60
20546;DHT22;10431;50.228;9.112;2023-07-13T02:39:30;22.70;86.70
20546;DHT22;10431;50.228;9.112;2023-07-13T02:41:59;22.70;86.80
20546;DHT22;10431;50.228;9.112;2023-07-13T02:44:26;22.70;86.80
20546;DHT22;10431;50.228;9.112;2023-07-13T02:46:52;22.70;86.80
20546;DHT22;10431;50.228;9.112;2023-07-13T02:49:18;22.70;86.80
20546;DHT22;10431;50.228;9.112;2023-07-13T02:51:44;22.70;86.70
20546;DHT22;10431;50.228;9.112;2023-07-13T02:54:10;22.70;86.90
20546;DHT22;10431;50.228;9.112;2023-07-13T02:56:37;22.70;87.10
20546;DHT22;10431;50.228;9.112;2023-07-13T02:59:04;22.60;87.10
20546;DHT22;10431;50.228;9.112;2023-07-13T03:01:31;22.70;87.20
20546;DHT22;10431;50.228;9.112;2023-07-13T03:04:01;22.60;87.10
20546;DHT22;10431;50.228;9.112;2023-07-13T03:06:28;22.60;87.30
20546;DHT22;10431;50.228;9.112;2023-07-13T03:08:56;22.60;87.30
20546;DHT22;10431;50.228;9.112;2023-07-13T03:11:23;22.60;87.20
20546;DHT22;10431;50.228;9.112;2023-07-13T03:14:09;22.60;87.30
20546;DHT22;10431;50.228;9.112;2023-07-13T03:16:37;22.60;87.40
20546;DHT22;10431;50.228;9.112;2023-07-13T03:19:03;22.60;87.50
20546;DHT22;10431;50.228;9.112;2023-07-13T03:21:30;22.60;87.50
20546;DHT22;10431;50.228;9.112;2023-07-13T03:23:56;22.60;87.20
20546;DHT22;10431;50.228;9.112;2023-07-13T03:26:22;22.60;87.10
20546;DHT22;10431;50.228;9.112;2023-07-13T03:28:48;22.50;87.00
20546;DHT22;10431;50.228;9.112;2023-07-13T03:31:20;22.50;87.30
20546;DHT22;10431;50.228;9.112;2023-07-13T03:33:46;22.50;87.50
20546;DHT22;10431;50.228;9.112;2023-07-13T03:36:14;22.40;87.50
20546;DHT22;10431;50.228;9.112;2023-07-13T03:38:42;22.40;87.70
20546;DHT22;10431;50.228;9.112;2023-07-13T03:41:09;22.40;87.80
20546;DHT22;10431;50.228;9.112;2023-07-13T03:43:35;22.40;87.70
20546;DHT22;10431;50.228;9.112;2023-07-13T03:46:01;22.40;87.70
20546;DHT22;10431;50.228;9.112;2023-07-13T03:48:27;22.40;87.80
20546;DHT22;10431;50.228;9.112;2023-07-13T03:50:53;22.30;87.80
20546;DHT22;10431;50.228;9.112;2023-07-13T03:53:19;22.30;87.80
20546;DHT22;10431;50.228;9.112;2023-07-13T03:55:46;22.30;87.90
20546;DHT22;10431;50.228;9.112;2023-07-13T03:58:26;22.30;87.80
20546;DHT22;10431;50.228;9.112;2023-07-13T04:00:55;22.30;87.80
20546;DHT22;10431;50.228;9.112;2023-07-13T04:03:22;22.20;87.70
20546;DHT22;10431;50.228;9.112;2023-07-13T04:05:48;22.20;87.70
20546;DHT22;10431;50.228;9.112;2023-07-13T04:08:14;22.20;87.70
20546;DHT22;10431;50.228;9.112;2023-07-13T04:10:40;22.20;87.70
20546;DHT22;10431;50.228;9.112;2023-07-13T04:13:06;22.20;87.80
20546;DHT22;10431;50.228;9.112;2023-07-13T04:15:32;22.20;87.90
20546;DHT22;10431;50.228;9.112;2023-07-13T04:17:58;22.10;87.90
20546;DHT22;10431;50.228;9.112;2023-07-13T04:20:25;22.10;87.90
20546;DHT22;10431;50.228;9.112;2023-07-13T04:22:51;22.20;88.00
20546;DHT22;10431;50.228;9.112;2023-07-13T04:25:20;22.20;88.00
20546;DHT22;10431;50.228;9.112;2023-07-13T04:27:46;22.20;87.90
20546;DHT22;10431;50.228;9.112;2023-07-13T04:30:12;22.20;87.50
20546;DHT22;10431;50.228;9.112;2023-07-13T04:32:38;22.20;87.30
20546;DHT22;10431;50.228;9.112;2023-07-13T04:35:04;22.20;87.10
20546;DHT22;10431;50.228;9.112;2023-07-13T04:37:30;22.10;86.90
20546;DHT22;10431;50.228;9.112;2023-07-13T04:39:56;22.10;87.10
20546;DHT22;10431;50.228;9.112;2023-07-13T04:42:22;22.10;87.40
20546;DHT22;10431;50.228;9.112;2023-07-13T04:44:49;22.10;87.60
20546;DHT22;10431;50.228;9.112;2023-07-13T04:47:15;22.10;87.70
20546;DHT22;10431;50.228;9.112;2023-07-13T04:49:42;22.00;87.90
20546;DHT22;10431;50.228;9.112;2023-07-13T04:52:08;22.00;87.50
20546;DHT22;10431;50.228;9.112;2023-07-13T04:54:34;22.00;87.30
20546;DHT22;10431;50.228;9.112;2023-07-13T04:57:00;22.00;87.30
20546;DHT22;10431;50.228;9.112;2023-07-13T04:59:26;22.00;87.00
20546;DHT22;10431;50.228;9.112;2023-07-13T05:01:53;22.00;86.80
20546;DHT22;10431;50.228;9.112;2023-07-13T05:04:19;22.00;86.80
20546;DHT22;10431;50.228;9.112;2023-07-13T05:06:45;22.10;86.60
20546;DHT22;10431;50.228;9.112;2023-07-13T05:09:11;22.20;87.20
20546;DHT22;10431;50.228;9.112;2023-07-13T05:11:38;22.20;86.20
20546;DHT22;10431;50.228;9.112;2023-07-13T05:14:04;22.20;86.40
20546;DHT22;10431;50.228;9.112;2023-07-13T05:16:30;22.20;86.90
20546;DHT22;10431;50.228;9.112;2023-07-13T05:18:57;22.20;86.90
20546;DHT22;10431;50.228;9.112;2023-07-13T05:21:23;22.20;86.90
20546;DHT22;10431;50.228;9.112;2023-07-13T05:23:50;22.20;87.00
20546;DHT22;10431;50.228;9.112;2023-07-13T05:26:16;22.30;87.00
20546;DHT22;10431;50.228;9.112;2023-07-13T05:28:42;22.30;87.00
20546;DHT22;10431;50.228;9.112;2023-07-13T05:31:08;22.30;87.00
20546;DHT22;10431;50.228;9.112;2023-07-13T05:33:34;22.30;87.10
20546;DHT22;10431;50.228;9.112;2023-07-13T05:36:00;22.40;87.20
20546;DHT22;10431;50.228;9.112;2023-07-13T05:38:27;22.40;87.50
20546;DHT22;10431;50.228;9.112;2023-07-13T05:40:53;22.50;87.50
20546;DHT22;10431;50.228;9.112;2023-07-13T05:43:19;22.60;87.40
20546;DHT22;10431;50.228;9.112;2023-07-13T05:45:45;22.60;87.50
20546;DHT22;10431;50.228;9.112;2023-07-13T05:48:11;22.70;87.40
20546;DHT22;10431;50.228;9.112;2023-07-13T05:50:37;22.60;86.10
20546;DHT22;10431;50.228;9.112;2023-07-13T05:53:04;22.60;86.60
20546;DHT22;10431;50.228;9.112;2023-07-13T05:55:30;22.70;87.00
20546;DHT22;10431;50.228;9.112;2023-07-13T05:57:56;22.70;86.70
20546;DHT22;10431;50.228;9.112;2023-07-13T06:00:24;22.70;86.70
20546;DHT22;10431;50.228;9.112;2023-07-13T06:02:50;22.70;86.20
20546;DHT22;10431;50.228;9.112;2023-07-13T06:05:16;22.70;86.20
20546;DHT22;10431;50.228;9.112;2023-07-13T06:07:42;22.80;86.20
20546;DHT22;10431;50.228;9.112;2023-07-13T06:10:08;22.80;84.90
20546;DHT22;10431;50.228;9.112;2023-07-13T06:12:35;22.70;84.10
20546;DHT22;10431;50.228;9.112;2023-07-13T06:15:01;22.70;83.80
20546;DHT22;10431;50.228;9.112;2023-07-13T06:17:27;22.60;84.10
20546;DHT22;10431;50.228;9.112;2023-07-13T06:19:53;22.70;84.10
20546;DHT22;10431;50.228;9.112;2023-07-13T06:22:19;22.80;84.40
20546;DHT22;10431;50.228;9.112;2023-07-13T06:24:45;22.80;84.00
20546;DHT22;10431;50.228;9.112;2023-07-13T06:27:11;22.70;83.50
20546;DHT22;10431;50.228;9.112;2023-07-13T06:29:37;22.80;83.10
20546;DHT22;10431;50.228;9.112;2023-07-13T06:32:03;22.80;82.10
20546;DHT22;10431;50.228;9.112;2023-07-13T06:34:29;22.80;81.20
20546;DHT22;10431;50.228;9.112;2023-07-13T06:36:55;22.90;81.20
20546;DHT22;10431;50.228;9.112;2023-07-13T06:39:21;22.90;80.80
20546;DHT22;10431;50.228;9.112;2023-07-13T06:41:47;22.90;80.60
20546;DHT22;10431;50.228;9.112;2023-07-13T06:44:13;22.90;80.10
20546;DHT22;10431;50.228;9.112;2023-07-13T06:46:39;23.00;80.40
20546;DHT22;10431;50.228;9.112;2023-07-13T06:49:05;22.90;80.20
20546;DHT22;10431;50.228;9.112;2023-07-13T06:51:31;23.00;79.80
20546;DHT22;10431;50.228;9.112;2023-07-13T06:53:57;22.90;79.90
20546;DHT22;10431;50.228;9.112;2023-07-13T06:56:23;22.90;79.50
20546;DHT22;10431;50.228;9.112;2023-07-13T06:58:49;22.90;79.60
20546;DHT22;10431;50.228;9.112;2023-07-13T07:01:15;22.90;79.60
20546;DHT22;10431;50.228;9.112;2023-07-13T07:03:41;22.90;79.20
20546;DHT22;10431;50.228;9.112;2023-07-13T07:06:18;22.90;79.40
20546;DHT22;10431;50.228;9.112;2023-07-13T07:08:45;22.90;79.60
20546;DHT22;10431;50.228;9.112;2023-07-13T07:11:16;22.90;79.50
20546;DHT22;10431;50.228;9.112;2023-07-13T07:13:42;22.90;79.50
20546;DHT22;10431;50.228;9.112;2023-07-13T07:16:08;22.90;79.60
20546;DHT22;10431;50.228;9.112;2023-07-13T07:18:34;22.90;79.80
20546;DHT22;10431;50.228;9.112;2023-07-13T07:21:01;23.00;80.10
20546;DHT22;10431;50.228;9.112;2023-07-13T07:23:27;23.00;80.10
20546;DHT22;10431;50.228;9.112;2023-07-13T07:25:53;23.00;80.20
20546;DHT22;10431;50.228;9.112;2023-07-13T07:28:19;23.10;80.30
20546;DHT22;10431;50.228;9.112;2023-07-13T07:30:46;23.10;80.50
20546;DHT22;10431;50.228;9.112;2023-07-13T07:33:12;23.10;80.70
20546;DHT22;10431;50.228;9.112;2023-07-13T07:35:38;23.10;80.80
20546;DHT22;10431;50.228;9.112;2023-07-13T07:38:04;23.10;80.80
20546;DHT22;10431;50.228;9.112;2023-07-13T07:40:31;23.20;81.00
20546;DHT22;10431;50.228;9.112;2023-07-13T07:42:57;23.20;81.10
20546;DHT22;10431;50.228;9.112;2023-07-13T07:45:23;23.20;81.30
20546;DHT22;10431;50.228;9.112;2023-07-13T07:47:49;23.20;81.80
20546;DHT22;10431;50.228;9.112;2023-07-13T07:50:15;23.20;82.00
20546;DHT22;10431;50.228;9.112;2023-07-13T07:52:41;23.30;82.10
20546;DHT22;10431;50.228;9.112;2023-07-13T07:55:09;23.30;82.30
20546;DHT22;10431;50.228;9.112;2023-07-13T07:57:36;23.30;82.60
20546;DHT22;10431;50.228;9.112;2023-07-13T08:00:02;23.30;82.80
20546;DHT22;10431;50.228;9.112;2023-07-13T08:02:40;23.40;82.90
20546;DHT22;10431;50.228;9.112;2023-07-13T08:05:07;23.40;83.40
20546;DHT22;10431;50.228;9.112;2023-07-13T08:07:34;23.30;83.40
20546;DHT22;10431;50.228;9.112;2023-07-13T08:10:00;23.30;83.70
20546;DHT22;10431;50.228;9.112;2023-07-13T08:12:26;23.40;83.70
20546;DHT22;10431;50.228;9.112;2023-07-13T08:14:52;23.40;83.80
20546;DHT22;10431;50.228;9.112;2023-07-13T08:17:24;23.40;83.90
20546;DHT22;10431;50.228;9.112;2023-07-13T08:19:50;23.40;84.00
20546;DHT22;10431;50.228;9.112;2023-07-13T08:22:16;23.40;84.10
20546;DHT22;10431;50.228;9.112;2023-07-13T08:24:42;23.50;84.30
20546;DHT22;10431;50.228;9.112;2023-07-13T08:27:09;23.50;83.90
20546;DHT22;10431;50.228;9.112;2023-07-13T08:29:37;23.50;83.40
20546;DHT22;10431;50.228;9.112;2023-07-13T08:32:04;23.50;82.80
20546;DHT22;10431;50.228;9.112;2023-07-13T08:34:31;23.50;81.70
20546;DHT22;10431;50.228;9.112;2023-07-13T08:36:57;23.50;81.90
20546;DHT22;10431;50.228;9.112;2023-07-13T08:39:23;23.40;81.60
20546;DHT22;10431;50.228;9.112;2023-07-13T08:41:50;23.40;81.70
20546;DHT22;10431;50.228;9.112;2023-07-13T08:44:27;23.50;82.20
20546;DHT22;10431;50.228;9.112;2023-07-13T08:46:57;23.50;81.90
20546;DHT22;10431;50.228;9.112;2023-07-13T08:49:24;23.50;81.90
20546;DHT22;10431;50.228;9.112;2023-07-13T08:54:28;23.40;82.10
20546;DHT22;10431;50.228;9.112;2023-07-13T08:56:56;23.40;82.20
20546;DHT22;10431;50.228;9.112;2023-07-13T08:59:24;23.50;82.90
20546;DHT22;10431;50.228;9.112;2023-07-13T09:01:58;23.50;82.20
20546;DHT22;10431;50.228;9.112;2023-07-13T09:04:31;23.50;82.30
20546;DHT22;10431;50.228;9.112;2023-07-13T09:14:44;23.50;82.90
20546;DHT22;10431;50.228;9.112;2023-07-13T09:20:22;23.50;83.20
20546;DHT22;10431;50.228;9.112;2023-07-13T09:22:49;23.50;83.30
20546;DHT22;10431;50.228;9.112;2023-07-13T09:27:47;23.50;83.90
20546;DHT22;10431;50.228;9.112;2023-07-13T09:32:41;23.50;84.10
20546;DHT22;10431;50.228;9.112;2023-07-13T09:35:12;23.60;84.30
20546;DHT22;10431;50.228;9.112;2023-07-13T09:37:40;23.60;83.20
20546;DHT22;10431;50.228;9.112;2023-07-13T09:40:11;23.60;83.30
20546;DHT22;10431;50.228;9.112;2023-07-13T09:42:39;23.60;83.60
20546;DHT22;10431;50.228;9.112;2023-07-13T09:45:05;23.50;83.90
20546;DHT22;10431;50.228;9.112;2023-07-13T09:47:38;23.50;84.00
20546;DHT22;10431;50.228;9.112;2023-07-13T09:50:14;23.50;84.10
20546;DHT22;10431;50.228;9.112;2023-07-13T09:52:49;23.60;84.30
20546;DHT22;10431;50.228;9.112;2023-07-13T09:55:25;23.60;84.30
20546;DHT22;10431;50.228;9.112;2023-07-13T09:57:51;23.50;84.40
20546;DHT22;10431;50.228;9.112;2023-07-13T10:00:20;23.60;82.60
20546;DHT22;10431;50.228;9.112;2023-07-13T10:02:49;23.60;82.70
20546;DHT22;10431;50.228;9.112;2023-07-13T10:05:23;23.60;83.00
20546;DHT22;10431;50.228;9.112;2023-07-13T10:07:50;23.60;83.60
20546;DHT22;10431;50.228;9.112;2023-07-13T10:10:17;23.60;83.90
20546;DHT22;10431;50.228;9.112;2023-07-13T10:12:44;23.60;84.10
20546;DHT22;10431;50.228;9.112;2023-07-13T10:15:14;23.60;84.30
20546;DHT22;10431;50.228;9.112;2023-07-13T10:17:40;23.60;84.50
20546;DHT22;10431;50.228;9.112;2023-07-13T10:20:06;23.60;84.60
20546;DHT22;10431;50.228;9.112;2023-07-13T10:25:17;23.60;84.80
20546;DHT22;10431;50.228;9.112;2023-07-13T10:27:44;23.60;85.00
20546;DHT22;10431;50.228;9.112;2023-07-13T10:30:15;23.60;85.10
20546;DHT22;10431;50.228;9.112;2023-07-13T10:32:43;23.60;85.20
20546;DHT22;10431;50.228;9.112;2023-07-13T10:35:13;23.60;85.30
20546;DHT22;10431;50.228;9.112;2023-07-13T10:40:12;23.60;86.40
20546;DHT22;10431;50.228;9.112;2023-07-13T10:42:42;23.60;86.40
20546;DHT22;10431;50.228;9.112;2023-07-13T10:45:16;23.60;86.90
20546;DHT22;10431;50.228;9.112;2023-07-13T10:47:43;23.70;87.50
20546;DHT22;10431;50.228;9.112;2023-07-13T10:50:13;23.70;87.40
20546;DHT22;10431;50.228;9.112;2023-07-13T10:52:46;23.70;87.10
20546;DHT22;10431;50.228;9.112;2023-07-13T10:55:31;23.70;86.90
20546;DHT22;10431;50.228;9.112;2023-07-13T10:58:14;23.70;87.00
20546;DHT22;10431;50.228;9.112;2023-07-13T11:00:44;23.70;87.20
20546;DHT22;10431;50.228;9.112;2023-07-13T11:03:16;23.70;87.60
20546;DHT22;10431;50.228;9.112;2023-07-13T11:05:43;23.70;87.60
20546;DHT22;10431;50.228;9.112;2023-07-13T11:08:20;23.70;87.50
20546;DHT22;10431;50.228;9.112;2023-07-13T11:10:48;23.70;87.60
20546;DHT22;10431;50.228;9.112;2023-07-13T11:15:59;23.70;87.60
20546;DHT22;10431;50.228;9.112;2023-07-13T11:18:25;23.70;87.70
20546;DHT22;10431;50.228;9.112;2023-07-13T11:20:51;23.70;87.70
20546;DHT22;10431;50.228;9.112;2023-07-13T11:23:19;23.70;87.70
20546;DHT22;10431;50.228;9.112;2023-07-13T11:25:46;23.70;87.90
20546;DHT22;10431;50.228;9.112;2023-07-13T11:28:16;23.70;87.90
20546;DHT22;10431;50.228;9.112;2023-07-13T11:33:19;23.70;87.90
20546;DHT22;10431;50.228;9.112;2023-07-13T11:38:14;23.70;88.10
20546;DHT22;10431;50.228;9.112;2023-07-13T11:40:41;23.70;88.20
20546;DHT22;10431;50.228;9.112;2023-07-13T11:43:07;23.70;88.10
20546;DHT22;10431;50.228;9.112;2023-07-13T11:45:33;23.70;88.20
20546;DHT22;10431;50.228;9.112;2023-07-13T11:48:00;23.70;88.30
20546;DHT22;10431;50.228;9.112;2023-07-13T11:50:27;23.70;88.40
20546;DHT22;10431;50.228;9.112;2023-07-13T11:52:53;23.70;88.60
20546;DHT22;10431;50.228;9.112;2023-07-13T11:55:22;23.70;88.40
20546;DHT22;10431;50.228;9.112;2023-07-13T11:57:50;23.70;88.60
20546;DHT22;10431;50.228;9.112;2023-07-13T12:00:17;23.70;88.50
20546;DHT22;10431;50.228;9.112;2023-07-13T12:02:45;23.70;88.50
20546;DHT22;10431;50.228;9.112;2023-07-13T12:05:12;23.70;88.40
20546;DHT22;10431;50.228;9.112;2023-07-13T12:07:39;23.70;88.20
20546;DHT22;10431;50.228;9.112;2023-07-13T12:12:36;23.80;87.10
20546;DHT22;10431;50.228;9.112;2023-07-13T12:15:05;23.80;87.60
20546;DHT22;10431;50.228;9.112;2023-07-13T12:17:31;23.80;87.60
20546;DHT22;10431;50.228;9.112;2023-07-13T12:19:57;23.80;87.60
20546;DHT22;10431;50.228;9.112;2023-07-13T12:22:24;23.80;87.60
20546;DHT22;10431;50.228;9.112;2023-07-13T12:24:51;23.80;87.60
20546;DHT22;10431;50.228;9.112;2023-07-13T12:27:22;23.80;86.20
20546;DHT22;10431;50.228;9.112;2023-07-13T12:29:50;23.80;83.60
20546;DHT22;10431;50.228;9.112;2023-07-13T12:32:17;23.90;81.10
20546;DHT22;10431;50.228;9.112;2023-07-13T12:34:53;23.90;80.70
20546;DHT22;10431;50.228;9.112;2023-07-13T12:37:19;23.90;79.60
20546;DHT22;10431;50.228;9.112;2023-07-13T12:39:46;23.90;79.40
20546;DHT22;10431;50.228;9.112;2023-07-13T12:42:17;23.90;78.40
20546;DHT22;10431;50.228;9.112;2023-07-13T12:44:46;23.90;77.10
20546;DHT22;10431;50.228;9.112;2023-07-13T12:47:13;23.90;76.60
20546;DHT22;10431;50.228;9.112;2023-07-13T12:49:40;23.90;76.70
20546;DHT22;10431;50.228;9.112;2023-07-13T12:52:14;23.90;75.80
20546;DHT22;10431;50.228;9.112;2023-07-13T12:54:40;23.90;74.90
20546;DHT22;10431;50.228;9.112;2023-07-13T12:57:08;23.90;74.50
20546;DHT22;10431;50.228;9.112;2023-07-13T12:59:40;23.90;74.60
20546;DHT22;10431;50.228;9.112;2023-07-13T13:02:26;23.90;74.50
20546;DHT22;10431;50.228;9.112;2023-07-13T13:04:55;23.90;74.30
20546;DHT22;10431;50.228;9.112;2023-07-13T13:07:21;23.90;74.20
20546;DHT22;10431;50.228;9.112;2023-07-13T13:09:48;23.90;73.70
20546;DHT22;10431;50.228;9.112;2023-07-13T13:12:14;23.90;73.30
20546;DHT22;10431;50.228;9.112;2023-07-13T13:14:41;23.90;72.70
20546;DHT22;10431;50.228;9.112;2023-07-13T13:17:16;23.90;72.50
20546;DHT22;10431;50.228;9.112;2023-07-13T13:19:45;23.80;72.10
20546;DHT22;10431;50.228;9.112;2023-07-13T13:22:11;23.90;72.20
20546;DHT22;10431;50.228;9.112;2023-07-13T13:24:38;23.90;72.30
20546;DHT22;10431;50.228;9.112;2023-07-13T13:27:04;23.80;71.90
20546;DHT22;10431;50.228;9.112;2023-07-13T13:29:30;23.80;71.80
20546;DHT22;10431;50.228;9.112;2023-07-13T13:31:57;23.90;72.30
20546;DHT22;10431;50.228;9.112;2023-07-13T13:34:23;23.90;72.30
20546;DHT22;10431;50.228;9.112;2023-07-13T13:36:50;23.90;71.70
20546;DHT22;10431;50.228;9.112;2023-07-13T13:39:24;23.90;71.80
20546;DHT22;10431;50.228;9.112;2023-07-13T13:41:51;23.90;72.30
20546;DHT22;10431;50.228;9.112;2023-07-13T13:44:18;23.90;72.70
20546;DHT22;10431;50.228;9.112;2023-07-13T13:46:48;23.80;73.30
20546;DHT22;10431;50.228;9.112;2023-07-13T13:49:16;23.90;73.60
20546;DHT22;10431;50.228;9.112;2023-07-13T13:51:43;23.80;74.00
20546;DHT22;10431;50.228;9.112;2023-07-13T13:54:10;23.80;74.30
20546;DHT22;10431;50.228;9.112;2023-07-13T13:56:37;23.80;74.20
20546;DHT22;10431;50.228;9.112;2023-07-13T13:59:07;23.80;74.50
20546;DHT22;10431;50.228;9.112;2023-07-13T14:01:34;23.80;74.50
20546;DHT22;10431;50.228;9.112;2023-07-13T14:04:00;23.80;75.10
20546;DHT22;10431;50.228;9.112;2023-07-13T14:06:26;23.80;75.30
20546;DHT22;10431;50.228;9.112;2023-07-13T14:08:53;23.80;75.50
20546;DHT22;10431;50.228;9.112;2023-07-13T14:11:21;23.80;75.20
20546;DHT22;10431;50.228;9.112;2023-07-13T14:13:49;23.80;75.80
20546;DHT22;10431;50.228;9.112;2023-07-13T14:16:16;23.80;75.90
20546;DHT22;10431;50.228;9.112;2023-07-13T14:18:43;23.80;76.00
20546;DHT22;10431;50.228;9.112;2023-07-13T14:21:13;23.80;76.10
20546;DHT22;10431;50.228;9.112;2023-07-13T14:23:40;23.80;76.60
20546;DHT22;10431;50.228;9.112;2023-07-13T14:26:16;23.80;76.50
20546;DHT22;10431;50.228;9.112;2023-07-13T14:28:44;23.80;76.90
20546;DHT22;10431;50.228;9.112;2023-07-13T14:31:11;23.80;77.00
20546;DHT22;10431;50.228;9.112;2023-07-13T14:33:37;23.80;77.20
20546;DHT22;10431;50.228;9.112;2023-07-13T14:36:20;23.80;77.50
20546;DHT22;10431;50.228;9.112;2023-07-13T14:38:47;23.80;78.00
20546;DHT22;10431;50.228;9.112;2023-07-13T14:41:13;23.80;77.20
20546;DHT22;10431;50.228;9.112;2023-07-13T14:43:39;23.80;77.70
20546;DHT22;10431;50.228;9.112;2023-07-13T14:46:07;23.80;77.90
20546;DHT22;10431;50.228;9.112;2023-07-13T14:48:42;23.80;78.00
20546;DHT22;10431;50.228;9.112;2023-07-13T14:51:10;23.80;78.20
20546;DHT22;10431;50.228;9.112;2023-07-13T14:53:36;23.80;78.20
20546;DHT22;10431;50.228;9.112;2023-07-13T14:56:10;23.80;78.60
20546;DHT22;10431;50.228;9.112;2023-07-13T14:58:36;23.90;78.60
20546;DHT22;10431;50.228;9.112;2023-07-13T15:01:02;23.80;78.60
20546;DHT22;10431;50.228;9.112;2023-07-13T15:03:28;23.80;78.80
20546;DHT22;10431;50.228;9.112;2023-07-13T15:05:54;23.90;78.90
20546;DHT22;10431;50.228;9.112;2023-07-13T15:08:20;23.90;79.10
20546;DHT22;10431;50.228;9.112;2023-07-13T15:10:46;23.80;79.10
20546;DHT22;10431;50.228;9.112;2023-07-13T15:13:14;23.90;79.30
20546;DHT22;10431;50.228;9.112;2023-07-13T15:15:40;23.90;79.40
20546;DHT22;10431;50.228;9.112;2023-07-13T15:18:09;23.90;79.50
20546;DHT22;10431;50.228;9.112;2023-07-13T15:20:35;23.90;79.60
20546;DHT22;10431;50.228;9.112;2023-07-13T15:23:01;23.90;79.60
20546;DHT22;10431;50.228;9.112;2023-07-13T15:25:30;23.90;79.70
20546;DHT22;10431;50.228;9.112;2023-07-13T15:27:57;23.90;79.80
20546;DHT22;10431;50.228;9.112;2023-07-13T15:30:27;23.90;79.90
20546;DHT22;10431;50.228;9.112;2023-07-13T15:32:54;23.90;80.00
20546;DHT22;10431;50.228;9.112;2023-07-13T15:35:22;23.90;80.20
20546;DHT22;10431;50.228;9.112;2023-07-13T15:37:49;23.90;80.10
20546;DHT22;10431;50.228;9.112;2023-07-13T15:40:16;23.90;80.20
20546;DHT22;10431;50.228;9.112;2023-07-13T15:42:42;23.90;80.20
20546;DHT22;10431;50.228;9.112;2023-07-13T15:45:16;23.90;80.30
20546;DHT22;10431;50.228;9.112;2023-07-13T15:47:43;23.90;80.30
20546;DHT22;10431;50.228;9.112;2023-07-13T15:50:14;23.90;80.40
20546;DHT22;10431;50.228;9.112;2023-07-13T15:52:40;23.90;80.40
20546;DHT22;10431;50.228;9.112;2023-07-13T15:55:09;23.90;80.40
20546;DHT22;10431;50.228;9.112;2023-07-13T15:57:35;23.90;80.40
20546;DHT22;10431;50.228;9.112;2023-07-13T16:00:02;23.90;80.20
20546;DHT22;10431;50.228;9.112;2023-07-13T16:02:39;23.90;80.40
20546;DHT22;10431;50.228;9.112;2023-07-13T16:05:05;23.90;79.30